createdAt,value
2019-05-09T00:02:17.386Z,16.08
2019-05-09T00:04:48.884Z,16.08
2019-05-09T00:07:20.253Z,16.08
2019-05-09T00:09:53.383Z,16.05
2019-05-09T00:12:24.838Z,16.09
2019-05-09T00:14:56.140Z,15.89
2019-05-09T00:17:27.565Z,15.95
2019-05-09T00:20:00.529Z,16.07
2019-05-09T00:22:33.290Z,16.10
2019-05-09T00:25:06.745Z,15.97
2019-05-09T00:27:38.175Z,15.88
2019-05-09T00:30:09.621Z,15.92
2019-05-09T00:32:43.218Z,15.85
2019-05-09T00:35:18.942Z,15.81
2019-05-09T00:38:06.336Z,15.89
2019-05-09T00:40:51.616Z,15.91
2019-05-09T00:43:13.168Z,15.90
2019-05-09T00:45:46.331Z,15.73
2019-05-09T00:48:19.185Z,15.70
2019-05-09T00:50:50.522Z,15.76
2019-05-09T00:53:23.267Z,15.90
2019-05-09T00:55:54.817Z,15.88
2019-05-09T00:58:26.216Z,15.86
2019-05-09T01:00:57.570Z,15.75
2019-05-09T01:03:28.921Z,15.61
2019-05-09T01:06:00.289Z,15.59
2019-05-09T01:08:33.513Z,15.56
2019-05-09T01:11:12.008Z,15.56
2019-05-09T01:13:37.873Z,15.56
2019-05-09T01:16:09.246Z,15.55
2019-05-09T01:18:40.614Z,15.39
2019-05-09T01:21:13.386Z,15.43
2019-05-09T01:23:44.930Z,15.41
2019-05-09T01:26:16.306Z,15.42
2019-05-09T01:28:47.671Z,15.38
2019-05-09T01:31:18.437Z,15.49
2019-05-09T01:34:00.453Z,15.28
2019-05-09T01:36:49.765Z,15.28
2019-05-09T01:39:21.127Z,15.28
2019-05-09T01:41:53.184Z,15.15
2019-05-09T01:44:25.640Z,15.08
2019-05-09T01:46:57.010Z,15.13
2019-05-09T01:49:28.382Z,15.16
2019-05-09T01:51:59.718Z,15.07
2019-05-09T01:54:33.112Z,15.09
2019-05-09T01:57:04.137Z,15.02
2019-05-09T01:59:35.447Z,15.12
2019-05-09T02:02:08.742Z,15.05
2019-05-09T02:04:43.861Z,15.03
2019-05-09T02:07:14.995Z,15.03
2019-05-09T02:09:46.327Z,15.05
2019-05-09T02:12:17.682Z,15.13
2019-05-09T02:15:05.728Z,15.25
2019-05-09T02:17:38.744Z,15.26
2019-05-09T02:20:10.200Z,15.30
2019-05-09T02:22:43.513Z,15.29
2019-05-09T02:25:14.624Z,15.32
2019-05-09T02:27:46.020Z,15.33
2019-05-09T02:30:17.472Z,15.11
2019-05-09T02:32:48.375Z,15.11
2019-05-09T02:35:20.564Z,14.88
2019-05-09T02:37:51.967Z,14.89
2019-05-09T02:40:23.261Z,14.95
2019-05-09T02:42:54.634Z,14.85
2019-05-09T02:45:28.448Z,14.97
2019-05-09T02:47:59.910Z,15.00
2019-05-09T02:50:31.252Z,14.96
2019-05-09T02:53:03.587Z,15.02
2019-05-09T02:55:34.979Z,15.02
2019-05-09T02:58:08.326Z,14.93
2019-05-09T03:00:41.509Z,15.08
2019-05-09T03:03:29.365Z,15.02
2019-05-09T03:06:00.715Z,14.93
2019-05-09T03:08:32.039Z,14.92
2019-05-09T03:11:03.425Z,15.03
2019-05-09T03:13:34.846Z,15.04
2019-05-09T03:16:08.673Z,15.10
2019-05-09T03:18:41.295Z,15.13
2019-05-09T03:21:19.940Z,15.12
2019-05-09T03:23:51.328Z,15.16
2019-05-09T03:26:24.246Z,15.11
2019-05-09T03:29:09.177Z,15.17
2019-05-09T03:31:42.042Z,15.16
2019-05-09T03:34:13.417Z,15.19
2019-05-09T03:36:44.752Z,15.18
2019-05-09T03:39:18.349Z,15.14
2019-05-09T03:41:50.419Z,15.21
2019-05-09T03:44:21.907Z,15.13
2019-05-09T03:46:54.857Z,15.12
2019-05-09T03:49:28.269Z,15.05
2019-05-09T03:51:59.251Z,14.99
2019-05-09T03:54:30.588Z,15.03
2019-05-09T03:57:03.512Z,15.03
2019-05-09T03:59:34.896Z,15.03
2019-05-09T04:02:09.951Z,14.91
2019-05-09T04:04:39.404Z,14.98
2019-05-09T04:07:10.798Z,15.04
2019-05-09T04:09:42.128Z,15.04
2019-05-09T04:12:13.640Z,15.07
2019-05-09T04:14:48.027Z,15.11
2019-05-09T04:17:20.468Z,15.06
2019-05-09T04:19:51.195Z,15.01
2019-05-09T04:22:22.274Z,14.98
2019-05-09T04:24:53.672Z,14.91
2019-05-09T04:27:29.889Z,14.91
2019-05-09T04:30:01.598Z,15.02
2019-05-09T04:32:34.190Z,14.97
2019-05-09T04:35:05.016Z,14.95
2019-05-09T04:37:38.000Z,14.90
2019-05-09T04:40:09.515Z,15.00
2019-05-09T04:42:44.461Z,15.03
2019-05-09T04:45:24.987Z,15.03
2019-05-09T04:47:57.781Z,15.01
2019-05-09T04:50:29.281Z,15.05
2019-05-09T04:53:00.780Z,15.03
2019-05-09T04:55:33.409Z,15.01
2019-05-09T04:58:04.465Z,14.89
2019-05-09T05:00:53.370Z,15.00
2019-05-09T05:03:28.249Z,15.02
2019-05-09T05:05:58.594Z,14.95
2019-05-09T05:08:30.114Z,14.99
2019-05-09T05:11:01.560Z,14.99
2019-05-09T05:13:35.071Z,14.97
2019-05-09T05:22:50.274Z,15.05
2019-05-09T05:25:22.845Z,14.92
2019-05-09T05:28:10.186Z,14.87
2019-05-09T05:30:47.748Z,14.93
2019-05-09T05:33:24.948Z,14.84
2019-05-09T05:35:57.967Z,14.87
2019-05-09T05:38:32.299Z,14.90
2019-05-09T05:41:08.252Z,14.88
2019-05-09T05:43:44.924Z,14.78
2019-05-09T05:46:38.262Z,14.89
2019-05-09T05:49:11.353Z,14.93
2019-05-09T05:51:51.734Z,14.87
2019-05-09T05:54:22.827Z,14.80
2019-05-09T05:56:54.159Z,14.82
2019-05-09T05:59:28.624Z,14.82
2019-05-09T06:02:00.578Z,14.81
2019-05-09T06:04:34.645Z,14.84
2019-05-09T06:07:07.988Z,14.89
2019-05-09T06:09:38.911Z,14.89
2019-05-09T06:12:09.808Z,14.83
2019-05-09T06:14:41.339Z,14.79
2019-05-09T06:17:13.409Z,14.90
2019-05-09T06:19:44.811Z,14.78
2019-05-09T06:22:18.131Z,14.71
2019-05-09T06:25:09.757Z,14.76
2019-05-09T06:34:43.647Z,14.51
2019-05-09T06:37:14.937Z,14.51
2019-05-09T06:39:48.465Z,14.49
2019-05-09T06:42:19.320Z,14.56
2019-05-09T06:45:00.811Z,14.63
2019-05-09T06:47:38.177Z,14.63
2019-05-09T06:50:14.167Z,14.60
2019-05-09T06:52:45.446Z,14.71
2019-05-09T06:55:17.341Z,14.66
2019-05-09T06:57:49.881Z,14.67
2019-05-09T07:00:31.994Z,14.63
2019-05-09T07:03:18.482Z,14.68
2019-05-09T07:05:54.140Z,14.70
2019-05-09T07:08:27.416Z,14.74
2019-05-09T07:11:01.594Z,14.64
2019-05-09T07:13:32.948Z,14.68
2019-05-09T07:16:04.292Z,14.65
2019-05-09T07:18:38.304Z,14.55
2019-05-09T07:21:09.828Z,14.52
2019-05-09T07:23:41.283Z,14.43
2019-05-09T07:26:23.074Z,14.35
2019-05-09T07:28:54.271Z,14.40
2019-05-09T07:31:33.444Z,14.37
2019-05-09T07:34:08.415Z,14.41
2019-05-09T07:36:39.261Z,14.50
2019-05-09T07:39:10.563Z,14.39
2019-05-09T07:41:41.937Z,14.44
2019-05-09T07:44:13.191Z,14.44
2019-05-09T07:46:47.474Z,14.30
2019-05-09T07:49:19.154Z,14.38
2019-05-09T07:51:50.448Z,14.34
2019-05-09T07:54:25.465Z,14.31
2019-05-09T07:56:54.700Z,14.37
2019-05-09T07:59:27.463Z,14.32
2019-05-09T08:01:58.974Z,14.42
2019-05-09T08:04:30.217Z,14.41
2019-05-09T08:07:01.713Z,14.44
2019-05-09T08:09:32.914Z,14.33
2019-05-09T08:12:04.205Z,14.45
2019-05-09T08:14:37.758Z,14.33
2019-05-09T08:17:09.320Z,14.29
2019-05-09T08:19:40.548Z,14.36
2019-05-09T08:22:11.861Z,14.45
2019-05-09T08:24:43.271Z,14.37
2019-05-09T08:27:14.529Z,14.36
2019-05-09T08:29:47.844Z,14.47
2019-05-09T08:32:18.955Z,14.38
2019-05-09T08:34:50.357Z,14.45
2019-05-09T08:37:21.628Z,14.32
2019-05-09T08:39:53.351Z,14.51
2019-05-09T08:43:10.301Z,14.58
2019-05-09T08:54:45.730Z,14.47
2019-05-09T08:57:18.266Z,14.45
2019-05-09T08:59:50.718Z,14.52
2019-05-09T09:02:22.721Z,14.37
2019-05-09T09:04:54.199Z,14.33
2019-05-09T09:07:25.512Z,14.32
2019-05-09T09:09:57.739Z,14.40
2019-05-09T09:12:34.158Z,14.41
2019-05-09T09:15:02.273Z,14.37
2019-05-09T09:17:33.503Z,14.41
2019-05-09T09:20:07.803Z,14.48
2019-05-09T09:22:39.210Z,14.54
2019-05-09T09:25:10.612Z,14.63
2019-05-09T09:27:41.497Z,14.47
2019-05-09T09:30:20.452Z,14.50
2019-05-09T09:32:47.959Z,14.52
2019-05-09T09:35:19.418Z,14.63
2019-05-09T09:37:52.248Z,14.63
2019-05-09T09:40:23.810Z,14.70
2019-05-09T09:42:58.257Z,14.60
2019-05-09T09:46:07.326Z,14.62
2019-05-09T10:04:48.145Z,14.87
2019-05-09T10:22:00.364Z,14.75
2019-05-09T10:24:53.715Z,14.93
2019-05-09T10:27:54.659Z,14.88
2019-05-09T10:34:24.596Z,14.81
2019-05-09T10:39:58.415Z,14.77
2019-05-09T10:42:37.929Z,14.95
2019-05-09T10:45:32.308Z,15.04
2019-05-09T10:49:52.962Z,15.12
2019-05-09T10:51:04.595Z,15.20
2019-05-09T10:53:37.732Z,15.04
2019-05-09T10:56:12.388Z,14.98
2019-05-09T10:58:43.357Z,15.01
2019-05-09T11:01:18.458Z,14.77
2019-05-09T11:03:58.967Z,14.76
2019-05-09T11:06:33.815Z,14.76
2019-05-09T11:09:08.704Z,14.90
2019-05-09T11:11:40.441Z,15.00
2019-05-09T11:14:28.692Z,15.08
2019-05-09T11:16:47.416Z,15.10
2019-05-09T11:19:20.948Z,15.11
2019-05-09T11:21:52.284Z,15.11
2019-05-09T11:24:40.591Z,15.07
2019-05-09T11:26:58.830Z,14.99
2019-05-09T11:29:29.617Z,15.06
2019-05-09T11:32:04.207Z,14.97
2019-05-09T11:34:37.582Z,15.02
2019-05-09T11:37:08.924Z,14.98
2019-05-09T11:39:42.298Z,15.08
2019-05-09T11:42:12.584Z,14.83
2019-05-09T11:44:44.439Z,14.77
2019-05-09T11:47:28.476Z,14.78
2019-05-09T11:49:48.829Z,14.84
2019-05-09T11:52:20.113Z,14.81
2019-05-09T11:54:51.401Z,14.84
2019-05-09T11:57:22.858Z,14.98
2019-05-09T11:59:57.821Z,14.87
2019-05-09T12:02:28.034Z,14.90
2019-05-09T12:04:59.577Z,14.81
2019-05-09T12:07:30.836Z,14.75
2019-05-09T12:10:02.241Z,14.83
2019-05-09T12:12:34.690Z,14.94
2019-05-09T12:15:08.792Z,14.86
2019-05-09T12:17:56.539Z,14.98
2019-05-09T12:20:13.746Z,14.97
2019-05-09T12:22:45.143Z,14.83
2019-05-09T12:25:18.333Z,14.85
2019-05-09T12:27:49.575Z,14.99
2019-05-09T12:30:20.955Z,15.13
2019-05-09T12:32:52.337Z,15.16
2019-05-09T12:35:23.637Z,15.24
2019-05-09T12:37:55.016Z,15.27
2019-05-09T12:40:26.497Z,15.29
2019-05-09T12:42:57.186Z,15.29
2019-05-09T12:45:28.269Z,15.22
2019-05-09T12:48:10.551Z,15.28
2019-05-09T12:50:32.504Z,15.23
2019-05-09T12:53:03.704Z,15.22
2019-05-09T12:55:34.946Z,15.21
2019-05-09T12:58:09.758Z,15.18
2019-05-09T13:00:40.762Z,15.17
2019-05-09T13:03:12.019Z,15.31
2019-05-09T13:05:46.803Z,15.37
2019-05-09T13:08:17.784Z,15.50
2019-05-09T13:10:52.080Z,15.39
2019-05-09T13:13:23.360Z,15.45
2019-05-09T13:15:58.243Z,15.50
2019-05-09T13:18:30.697Z,15.56
2019-05-09T13:21:01.914Z,15.60
2019-05-09T13:23:33.168Z,15.61
2019-05-09T13:26:04.472Z,15.58
2019-05-09T13:28:37.764Z,15.51
2019-05-09T13:31:08.715Z,15.54
2019-05-09T13:33:41.373Z,15.55
2019-05-09T13:36:13.216Z,15.53
2019-05-09T13:38:57.681Z,15.49
2019-05-09T13:41:17.790Z,15.49
2019-05-09T13:43:57.713Z,15.44
2019-05-09T13:46:22.434Z,15.32
2019-05-09T13:49:08.349Z,15.42
2019-05-09T13:51:26.878Z,15.44
2019-05-09T13:53:59.322Z,15.46
2019-05-09T13:56:30.948Z,15.46
2019-05-09T13:59:02.246Z,15.46
2019-05-09T14:01:33.462Z,15.41
2019-05-09T14:04:04.855Z,15.41
2019-05-09T14:06:38.833Z,15.37
2019-05-09T14:09:10.483Z,15.37
2019-05-09T14:11:42.200Z,15.35
2019-05-09T14:14:13.649Z,15.37
2019-05-09T14:16:44.993Z,15.40
2019-05-09T14:19:34.312Z,15.38
2019-05-09T14:21:49.506Z,15.37
2019-05-09T14:24:20.874Z,15.38
2019-05-09T14:26:51.704Z,15.38
2019-05-09T14:29:22.806Z,15.31
2019-05-09T14:31:54.195Z,15.36
2019-05-09T14:34:25.802Z,15.42
2019-05-09T14:36:58.602Z,15.32
2019-05-09T14:39:30.009Z,15.37
2019-05-09T14:42:01.456Z,15.36
2019-05-09T14:44:32.896Z,15.35
2019-05-09T14:47:04.236Z,15.35
2019-05-09T14:49:43.207Z,15.37
2019-05-09T14:52:08.591Z,15.41
2019-05-09T14:54:40.085Z,15.41
2019-05-09T14:57:11.852Z,15.40
2019-05-09T14:59:43.408Z,15.35
2019-05-09T15:02:14.131Z,15.26
2019-05-09T15:04:45.225Z,15.25
2019-05-09T15:07:18.635Z,15.28
2019-05-09T15:09:49.740Z,15.26
2019-05-09T15:12:20.946Z,15.25
2019-05-09T15:14:52.892Z,15.30
2019-05-09T15:17:24.154Z,15.25
2019-05-09T15:19:59.550Z,15.28
2019-05-09T15:22:28.561Z,15.21
2019-05-09T15:24:59.226Z,15.21
2019-05-09T15:27:31.810Z,15.12
2019-05-09T15:30:03.252Z,15.10
2019-05-09T15:32:34.406Z,15.09
2019-05-09T15:35:05.762Z,15.05
2019-05-09T15:37:38.611Z,15.06
2019-05-09T15:40:10.199Z,14.98
2019-05-09T15:42:41.578Z,14.98
2019-05-09T15:45:12.934Z,15.01
2019-05-09T15:47:44.263Z,14.94
2019-05-09T15:50:22.926Z,14.84
2019-05-09T15:52:51.511Z,14.86
2019-05-09T15:55:22.796Z,14.79
2019-05-09T15:57:57.651Z,14.71
2019-05-09T16:00:28.797Z,14.73
2019-05-09T16:03:00.144Z,14.76
2019-05-09T16:05:31.972Z,14.80
2019-05-09T16:08:03.208Z,14.79
2019-05-09T16:10:34.437Z,14.77
2019-05-09T16:13:07.983Z,14.69
2019-05-09T16:15:38.688Z,14.76
2019-05-09T16:18:10.132Z,14.70
2019-05-09T16:20:41.635Z,14.71
2019-05-09T16:23:12.877Z,14.73
2019-05-09T16:25:47.970Z,14.71
2019-05-09T16:28:19.372Z,14.71
2019-05-09T16:30:50.653Z,14.67
2019-05-09T16:33:22.926Z,14.67
2019-05-09T16:35:57.692Z,14.67
2019-05-09T16:38:42.045Z,14.65
2019-05-09T16:41:01.970Z,14.67
2019-05-09T16:43:33.347Z,14.69
2019-05-09T16:46:04.607Z,14.68
2019-05-09T16:48:35.924Z,14.70
2019-05-09T16:51:07.907Z,14.73
2019-05-09T16:53:39.277Z,14.71
2019-05-09T16:56:11.505Z,14.69
2019-05-09T16:58:42.981Z,14.69
2019-05-09T17:01:18.999Z,14.70
2019-05-09T17:03:52.808Z,14.63
2019-05-09T17:06:24.099Z,14.63
2019-05-09T17:08:55.407Z,14.63
2019-05-09T17:11:31.383Z,14.62
2019-05-09T17:14:08.248Z,14.59
2019-05-09T17:16:48.359Z,14.56
2019-05-09T17:19:20.974Z,14.57
2019-05-09T17:22:07.702Z,14.54
2019-05-09T17:24:40.410Z,14.52
2019-05-09T17:27:11.962Z,14.53
2019-05-09T17:29:44.679Z,14.54
2019-05-09T17:32:21.588Z,14.49
2019-05-09T17:37:52.018Z,14.40
2019-05-09T17:40:28.124Z,14.36
2019-05-09T17:43:03.114Z,14.38
2019-05-09T17:45:39.479Z,14.35
2019-05-09T17:48:11.823Z,14.38
2019-05-09T17:50:43.299Z,14.40
2019-05-09T17:56:18.444Z,14.26
2019-05-09T17:59:23.724Z,14.17
2019-05-09T18:01:53.172Z,14.18
2019-05-09T18:04:24.613Z,14.15
2019-05-09T18:06:59.209Z,14.18
2019-05-09T18:09:39.377Z,14.22
2019-05-09T18:12:12.412Z,14.81
2019-05-09T18:14:49.859Z,14.37
2019-05-09T18:17:21.421Z,14.28
2019-05-09T18:19:55.240Z,14.09
2019-05-09T18:22:28.480Z,14.03
2019-05-09T18:25:08.234Z,14.09
2019-05-09T18:27:43.943Z,14.01
2019-05-09T18:30:34.042Z,14.01
2019-05-09T18:33:08.696Z,13.96
2019-05-09T18:35:50.706Z,13.93
2019-05-09T18:38:25.245Z,13.85
2019-05-09T18:41:07.143Z,13.82
2019-05-09T18:43:37.674Z,13.84
2019-05-09T18:46:09.132Z,13.85
2019-05-09T18:48:44.318Z,13.86
2019-05-09T18:51:15.689Z,13.88
2019-05-09T18:53:47.142Z,13.91
2019-05-09T18:56:18.359Z,13.94
2019-05-09T18:58:49.767Z,13.92
2019-05-09T19:01:20.557Z,13.89
2019-05-09T19:03:51.759Z,13.82
2019-05-09T19:06:23.796Z,13.82
2019-05-09T19:09:00.338Z,13.82
2019-05-09T19:11:31.457Z,13.81
2019-05-09T19:14:04.275Z,13.79
2019-05-09T19:16:49.357Z,13.70
2019-05-09T19:19:22.323Z,13.68
2019-05-09T19:21:56.416Z,13.70
2019-05-09T19:24:29.270Z,13.61
2019-05-09T19:27:04.143Z,13.60
2019-05-09T19:29:35.488Z,13.61
2019-05-09T19:32:37.025Z,13.60
2019-05-09T19:34:53.886Z,13.60
2019-05-09T19:37:25.783Z,13.56
2019-05-09T19:39:58.344Z,13.57
2019-05-09T19:42:36.737Z,13.58
2019-05-09T19:45:21.884Z,13.60
2019-05-09T19:47:59.553Z,13.61
2019-05-09T19:50:30.967Z,13.60
2019-05-09T19:53:02.580Z,13.61
2019-05-09T19:55:44.394Z,13.58
2019-05-09T19:58:19.121Z,13.57
2019-05-09T20:00:50.549Z,13.51
2019-05-09T20:03:26.248Z,13.47
2019-05-09T20:05:57.750Z,13.47
2019-05-09T20:08:36.116Z,13.45
2019-05-09T20:11:38.787Z,13.39
2019-05-09T20:14:23.530Z,13.36
2019-05-09T20:16:57.139Z,13.31
2019-05-09T20:19:28.586Z,13.32
2019-05-09T20:22:00.536Z,13.32
2019-05-09T20:24:32.739Z,13.33
2019-05-09T20:27:03.425Z,13.25
2019-05-09T20:29:34.777Z,13.17
2019-05-09T20:32:12.736Z,13.24
2019-05-09T20:34:45.785Z,13.22
2019-05-09T20:37:32.220Z,13.24
2019-05-09T20:40:11.931Z,13.28
2019-05-09T20:42:46.414Z,13.34
2019-05-09T20:48:23.390Z,13.38
2019-05-09T20:50:57.882Z,13.33
2019-05-09T20:53:29.512Z,13.30
2019-05-09T20:56:09.381Z,13.20
2019-05-09T20:58:41.175Z,13.27
2019-05-09T21:01:19.470Z,13.27
2019-05-09T21:04:00.186Z,13.27
2019-05-09T21:06:27.163Z,13.30
2019-05-09T21:08:59.031Z,13.34
2019-05-09T21:11:30.910Z,13.37
2019-05-09T21:14:02.722Z,13.35
2019-05-09T21:16:34.586Z,13.30
2019-05-09T21:19:07.268Z,13.33
2019-05-09T21:21:39.061Z,13.32
2019-05-09T21:24:10.879Z,13.31
2019-05-09T21:26:42.645Z,13.27
2019-05-09T21:29:15.960Z,13.21
2019-05-09T21:31:54.340Z,13.23
2019-05-09T21:34:26.015Z,13.22
2019-05-09T21:37:00.694Z,13.23
2019-05-09T21:39:33.670Z,13.22
2019-05-09T21:42:24.073Z,13.20
2019-05-09T21:45:04.890Z,13.17
2019-05-09T21:47:41.410Z,13.16
2019-05-09T21:50:18.890Z,13.14
2019-05-09T21:52:50.388Z,13.12
2019-05-09T21:55:32.327Z,13.13
2019-05-09T21:58:14.198Z,13.06
2019-05-09T22:00:52.745Z,13.02
2019-05-09T22:03:39.886Z,13.04
2019-05-09T22:06:12.866Z,13.06
2019-05-09T22:08:46.024Z,12.96
2019-05-09T22:11:26.076Z,13.01
2019-05-09T22:14:01.323Z,12.99
2019-05-09T22:16:35.676Z,13.02
2019-05-09T22:19:17.991Z,13.04
2019-05-09T22:21:54.947Z,13.05
2019-05-09T22:24:31.072Z,13.01
2019-05-09T22:27:01.930Z,13.03
2019-05-09T22:29:33.121Z,12.97
2019-05-09T22:32:04.534Z,12.98
2019-05-09T22:34:40.638Z,12.97
2019-05-09T22:37:20.595Z,12.94
2019-05-09T22:39:53.087Z,12.96
2019-05-09T22:42:24.284Z,12.89
2019-05-09T22:45:01.029Z,12.96
2019-05-09T22:47:39.177Z,12.96
2019-05-09T22:50:12.166Z,12.96
2019-05-09T22:52:45.239Z,12.91
2019-05-09T22:55:19.802Z,12.91
2019-05-09T22:57:52.303Z,12.90
2019-05-09T23:00:23.761Z,12.91
2019-05-09T23:03:03.190Z,12.96
2019-05-09T23:05:34.820Z,12.91
2019-05-09T23:08:06.259Z,12.93
2019-05-09T23:10:37.596Z,12.95
2019-05-09T23:13:10.076Z,12.97
2019-05-09T23:15:41.572Z,12.98
2019-05-09T23:18:14.087Z,12.97
2019-05-09T23:20:48.138Z,12.97
2019-05-09T23:23:34.056Z,12.95
2019-05-09T23:26:07.096Z,12.97
2019-05-09T23:28:38.646Z,12.98
2019-05-09T23:31:11.011Z,12.97
2019-05-09T23:33:43.014Z,12.88
2019-05-09T23:36:14.461Z,12.96
2019-05-09T23:39:03.915Z,12.96
2019-05-09T23:41:35.316Z,12.96
2019-05-09T23:44:06.250Z,13.00
2019-05-09T23:46:37.333Z,12.94
2019-05-09T23:49:08.728Z,12.99
2019-05-09T23:51:49.606Z,13.00
2019-05-09T23:54:47.223Z,13.00
2019-05-09T23:57:33.002Z,12.98
